Terminal Aerodrome Forecast
Issued by NWS

Home | Current Version | Previous Version | Text Only | Print | Product List | Glossary On
Versions: 1 2 3 4 5 6 7 8 9 10 11 12 13 14
000
FTUS45 KGJT 241903 AAA
TAFMTJ
TAF AMD
KMTJ 241903Z 2419/2518 23015G25KT P6SM BKN100
     FM242000 23015G25KT P6SM BKN100
     FM242300 23016G26KT P6SM VCSH OVC090
     FM250200 25009KT P6SM VCSH BKN070
     FM250800 25005KT P6SM VCSH OVC050
     FM251200 20004KT P6SM OVC050=

USA.gov is the U.S. government's official web portal to all federal, state and local government web resources and services.